Thousand Island Park, New York
Current Conditions -  °F | °C
As of 1:06 AM on Sunday 23 Nov 2014 (Local Time) from KART Reporting Station
Light Rain Light Rain  
Wind Chill: 38°   Ceiling: 1200
Heat Index: 44°   Visibility: 2.5mi
Dew Point: 38°   Wind: 12mph
Humidity: 79%   Direction: 190°S
Pressure: 29.96"   Gusts: 20mph
Location:  44.29°N, 76.03°W
Report Text: KART 230606Z AUTO 19010G17KT 2 1/2SM -RA OVC012 07/03 A2996 RMK AO2 P0001 T00670033
Loading
Personal Weather Stations






























Interactive Weather Map New forecast layout! Learn more

10-Day Weather Forecast

Advertisements
Track Severe Weather on mobile